KHKS

Hawkins Field Airport

Jackson, Mississippi, USA
METAR KHKS 271153Z AUTO 09004KT 10SM CLR 21/20 A2989 RMK AO2 SLP115 T02060200 10206 20189 53010
Observed Flight Rules
May-27 @ 11:53 UTC (13 minutes ago) Visual Flight Rules
Wind Visibility Clouds
90° at 4 knots 10 miles
  • Clear skies
Temperatures Readings
Current 21°C / 70°F
Dewpoint 20°C / 68°F
Humidity 94%
Altimeter 29.89" Hg
Pressure 1011.5 hPa
Elevation 108
METAR KHKS 271153Z AUTO 09004KT 10SM CLR 21/20 A2989 RMK AO2 SLP115 T02060200 10206 20189 53010
Observed Flight Rules
May-27 @ 11:53 UTC
(13 minutes ago)
VFR
Wind Visibility
90° at 4 knots 10 miles
Clouds
  • Clear skies
Temperature Dewpoint
21°C / 70°F 20°C / 68°F
Humidity Altimeter Pressure
94% 29.89" Hg 1011.5 hPa